地図

経路データ

SID SEASON NUMBER BASIN SUBBASIN NAME ISO_TIME NATURE LAT LON WMO_WIND WMO_PRES WMO_AGENCY TRACK_TYPE DIST2LAND LANDFALL IFLAG USA_AGENCY USA_ATCF_ID USA_LAT USA_LON USA_RECORD USA_STATUS USA_WIND USA_PRES USA_SSHS USA_R34_NE USA_R34_SE USA_R34_SW USA_R34_NW USA_R50_NE USA_R50_SE USA_R50_SW USA_R50_NW USA_R64_NE USA_R64_SE USA_R64_SW USA_R64_NW USA_POCI USA_ROCI USA_RMW USA_EYE TOKYO_LAT TOKYO_LON TOKYO_GRADE TOKYO_WIND TOKYO_PRES TOKYO_R50_DIR TOKYO_R50_LONG TOKYO_R50_SHORT TOKYO_R30_DIR TOKYO_R30_LONG TOKYO_R30_SHORT TOKYO_LAND CMA_LAT CMA_LON CMA_CAT CMA_WIND CMA_PRES HKO_LAT HKO_LON HKO_CAT HKO_WIND HKO_PRES NEWDELHI_LAT NEWDELHI_LON NEWDELHI_GRADE NEWDELHI_WIND NEWDELHI_PRES NEWDELHI_CI NEWDELHI_DP NEWDELHI_POCI REUNION_LAT REUNION_LON REUNION_TYPE REUNION_WIND REUNION_PRES REUNION_TNUM REUNION_CI REUNION_RMW REUNION_R34_NE REUNION_R34_SE REUNION_R34_SW REUNION_R34_NW REUNION_R50_NE REUNION_R50_SE REUNION_R50_SW REUNION_R50_NW REUNION_R64_NE REUNION_R64_SE REUNION_R64_SW REUNION_R64_NW BOM_LAT BOM_LON BOM_TYPE BOM_WIND BOM_PRES BOM_TNUM BOM_CI BOM_RMW BOM_R34_NE BOM_R34_SE BOM_R34_SW BOM_R34_NW BOM_R50_NE BOM_R50_SE BOM_R50_SW BOM_R50_NW BOM_R64_NE BOM_R64_SE BOM_R64_SW BOM_R64_NW BOM_ROCI BOM_POCI BOM_EYE BOM_POS_METHOD BOM_PRES_METHOD NADI_LAT NADI_LON NADI_CAT NADI_WIND NADI_PRES WELLINGTON_LAT WELLINGTON_LON WELLINGTON_WIND WELLINGTON_PRES DS824_LAT DS824_LON DS824_STAGE DS824_WIND DS824_PRES TD9636_LAT TD9636_LON TD9636_STAGE TD9636_WIND TD9636_PRES TD9635_LAT TD9635_LON TD9635_WIND TD9635_PRES TD9635_ROCI NEUMANN_LAT NEUMANN_LON NEUMANN_CLASS NEUMANN_WIND NEUMANN_PRES MLC_LAT MLC_LON MLC_CLASS MLC_WIND MLC_PRES USA_GUST BOM_GUST BOM_GUST_PER REUNION_GUST REUNION_GUST_PER USA_SEAHGT USA_SEARAD_NE USA_SEARAD_SE USA_SEARAD_SW USA_SEARAD_NW STORM_SPEED STORM_DIR
1979317N10072 1979 108 NI AS NOT_NAMED 1979-11-13 00:00:00 TS 9.50000 71.6000 main 482 482 O________OO___ jtwc_io IO071979 9.50000 71.6000 -1 9.50000 71.6000 TC 9.50000 71.6000 1 9 311
1979317N10072 1979 108 NI AS NOT_NAMED 1979-11-13 03:00:00 TS 9.80569 71.2466 main 501 496 P________PP___ IO071979 9.80759 71.2351 -1 9.80759 71.2351 TC 9.80188 71.2694 1 9 312
1979317N10072 1979 108 NI AS NOT_NAMED 1979-11-13 06:00:00 TS 10.0976 70.9169 main 515 515 O________OP___ jtwc_io IO071979 10.1000 70.9000 -1 10.1000 70.9000 TC 10.0929 70.9507 1 8 313
1979317N10072 1979 108 NI AS NOT_NAMED 1979-11-13 09:00:00 TS 10.3641 70.6322 main 529 529 P________PP___ IO071979 10.3650 70.6200 -1 10.3650 70.6200 TC 10.3624 70.6567 1 7 315
1979317N10072 1979 108 NI AS NOT_NAMED 1979-11-13 12:00:00 TS 10.6000 70.4000 main 538 538 O________OO___ jtwc_io IO071979 10.6000 70.4000 -1 10.6000 70.4000 TC 10.6000 70.4000 1 6 318
1979317N10072 1979 108 NI AS NOT_NAMED 1979-11-13 15:00:00 TS 10.8053 70.2245 main 548 544 P________PP___ IO071979 10.8075 70.2424 -1 10.8075 70.2424 TC 10.8011 70.1887 1 5 321
1979317N10072 1979 108 NI AS NOT_NAMED 1979-11-13 18:00:00 TS 10.9949 70.0707 main 549 549 O________OP___ jtwc_io IO071979 11.0000 70.1000 -1 11.0000 70.1000 TC 10.9848 70.0120 1 5 318
1979317N10072 1979 108 NI AS NOT_NAMED 1979-11-13 21:00:00 TS 11.1820 69.8848 main 562 562 P________PP___ IO071979 11.1850 69.9000 -1 11.1850 69.9000 TC 11.1761 69.8543 1 5 318
1979317N10072 1979 108 NI AS NOT_NAMED 1979-11-14 00:00:00 TS 11.4000 69.7000 main 576 573 O________OO___ jtwc_io IO071979 11.4000 69.7000 XX 20 -5 11.4000 69.7000 TC 20 11.4000 69.7000 1 6 325
1979317N10072 1979 108 NI AS NOT_NAMED 1979-11-14 03:00:00 TS 11.6827 69.5255 main 589 586 P________PP___ IO071979 11.6775 69.5499 XX 20 -5 11.6775 69.5499 TC 20 11.6932 69.4767 1 7 331
1979317N10072 1979 108 NI AS NOT_NAMED 1979-11-14 06:00:00 TS 12.0067 69.3536 main 593 593 O________OP___ jtwc_io IO071979 12.0000 69.4000 XX 20 -5 12.0000 69.4000 TC 20 12.0201 69.2607 1 8 331
1979317N10072 1979 108 NI AS NOT_NAMED 1979-11-14 09:00:00 TS 12.3540 69.1432 main 600 593 P________PP___ IO071979 12.3500 69.1702 XX 20 -5 12.3500 69.1702 TC 20 12.3619 69.0893 1 8 334
1979317N10072 1979 108 NI AS NOT_NAMED 1979-11-14 12:00:00 TS 12.7000 69.0000 main 593 578 O________OO___ jtwc_io IO071979 12.7000 69.0000 XX 20 -5 12.7000 69.0000 TC 20 12.7000 69.0000 1 7 349
1979317N10072 1979 108 NI AS NOT_NAMED 1979-11-14 15:00:00 TS 13.0101 69.0074 main 578 555 P________PP___ IO071979 13.0075 68.9900 XX 20 -5 13.0075 68.9900 TC 20 13.0153 69.0423 1 6 11
1979317N10072 1979 108 NI AS NOT_NAMED 1979-11-14 18:00:00 TS 13.3075 69.1223 main 555 523 O________OP___ jtwc_io IO071979 13.3000 69.1000 XX 20 -5 13.3000 69.1000 TC 20 13.3225 69.1669 1 7 26
1979317N10072 1979 108 NI AS NOT_NAMED 1979-11-14 21:00:00 TS 13.6112 69.3059 main 523 490 P________PP___ IO071979 13.6076 69.2924 XX 20 -5 13.6076 69.2924 TC 20 13.6185 69.3330 1 7 32
1979317N10072 1979 108 NI AS NOT_NAMED 1979-11-15 00:00:00 TS 13.9000 69.5000 main 490 471 O________OO___ jtwc_io IO071979 13.9000 69.5000 XX 20 -5 13.9000 69.5000 TC 20 13.9000 69.5000 1 6 29
1979317N10072 1979 108 NI AS NOT_NAMED 1979-11-15 03:00:00 TS 14.1516 69.6085 main 467 450 P________PP___ IO071979 14.1575 69.6151 XX 22 -5 14.1575 69.6151 TC 22 14.1399 69.5954 1 5 21
1979317N10072 1979 108 NI AS NOT_NAMED 1979-11-15 06:00:00 TS 14.3900 69.6952 main 450 430 O________OP___ jtwc_io IO071979 14.4000 69.7000 XX 25 -5 14.4000 69.7000 TC 25 14.3699 69.6855 1 5 20
1979317N10072 1979 108 NI AS NOT_NAMED 1979-11-15 09:00:00 TS 14.6283 69.7894 main 430 405 P________PP___ IO071979 14.6350 69.7926 XX 27 -5 14.6350 69.7926 TC 27 14.6149 69.7829 1 6 21
1979317N10072 1979 108 NI AS NOT_NAMED 1979-11-15 12:00:00 TS 14.9000 69.9000 main 405 381 O________OO___ jtwc_io IO071979 14.9000 69.9000 XX 30 -5 14.9000 69.9000 TC 30 14.9000 69.9000 1 7 23
1979317N10072 1979 108 NI AS NOT_NAMED 1979-11-15 15:00:00 TS 15.2256 70.0479 main 381 346 P________PP___ IO071979 15.2200 70.0351 XX 30 -5 15.2200 70.0351 TC 30 15.2367 70.0734 1 8 24
1979317N10072 1979 108 NI AS NOT_NAMED 1979-11-15 18:00:00 TS 15.6059 70.2215 main 346 314 O________OP___ jtwc_io IO071979 15.6000 70.2000 XX 30 -5 15.6000 70.2000 TC 30 15.6177 70.2645 1 9 24
1979317N10072 1979 108 NI AS NOT_NAMED 1979-11-15 21:00:00 TS 16.0216 70.4161 main 314 287 P________PP___ IO071979 16.0125 70.4000 XX 32 -5 16.0125 70.4000 TC 32 16.0399 70.4484 1 10 22
1979317N10072 1979 108 NI AS NOT_NAMED 1979-11-16 00:00:00 TS 16.5000 70.6000 main 287 250 O________OO___ jtwc_io IO071979 16.5000 70.6000 XX 35 -5 16.5000 70.6000 TC 35 16.5000 70.6000 1 11 18
1979317N10072 1979 108 NI AS NOT_NAMED 1979-11-16 03:00:00 TS 17.0860 70.7657 main 250 222 P________PP___ IO071979 17.1000 70.7873 XX 37 -5 17.1000 70.7873 TC 37 17.0580 70.7224 1 12 12
1979317N10072 1979 108 NI AS NOT_NAMED 1979-11-16 06:00:00 TS 17.6799 70.8683 main 218 211 O________OP___ jtwc_io IO071979 17.7000 70.9000 XX 40 -5 17.7000 70.9000 TC 40 17.6398 70.8048 1 11 5
1979317N10072 1979 108 NI AS NOT_NAMED 1979-11-16 09:00:00 TS 18.2089 70.8751 main 211 207 P________PP___ IO071979 18.2250 70.8952 XX 40 -5 18.2250 70.8952 TC 40 18.1767 70.8349 1 9 356
1979317N10072 1979 108 NI AS NOT_NAMED 1979-11-16 12:00:00 TS 18.6000 70.8000 main 213 211 O________OO___ jtwc_io IO071979 18.6000 70.8000 XX 40 -5 18.6000 70.8000 TC 40 18.6000 70.8000 2 6 342
1979317N10072 1979 108 NI AS NOT_NAMED 1979-11-16 15:00:00 TS 18.7730 70.6782 main 212 212 P________PP___ IO071979 18.7525 70.6724 XX 40 -5 18.7525 70.6724 TC 40 18.8141 70.6898 2 4 310
1979317N10072 1979 108 NI AS NOT_NAMED 1979-11-16 18:00:00 TS 18.8375 70.5058 main 214 203 O________OP___ jtwc_io IO071979 18.8000 70.5000 XX 40 -5 18.8000 70.5000 TC 40 18.9126 70.5175 2 4 292
1979317N10072 1979 108 NI AS NOT_NAMED 1979-11-16 21:00:00 TS 18.9133 70.3038 main 208 200 P________PP___ IO071979 18.8925 70.3000 XX 40 -5 18.8925 70.3000 TC 40 18.9548 70.3115 2 4 293
1979317N10072 1979 108 NI AS NOT_NAMED 1979-11-17 00:00:00 TS 19.0000 70.1000 main 203 197 O________OO___ jtwc_io IO071979 19.0000 70.1000 XX 40 -5 19.0000 70.1000 TC 40 19.0000 70.1000 1 4 301
1979317N10072 1979 108 NI AS NOT_NAMED 1979-11-17 03:00:00 TS 19.1267 69.9352 main 202 188 P________PP___ IO071979 19.1424 69.9500 XX 37 -5 19.1424 69.9500 TC 37 19.0953 69.9055 1 4 312
1979317N10072 1979 108 NI AS NOT_NAMED 1979-11-17 06:00:00 TS 19.2792 69.7760 main 188 185 O________OP___ jtwc_io IO071979 19.3000 69.8000 XX 35 -5 19.3000 69.8000 TC 35 19.2375 69.7279 1 4 314
1979317N10072 1979 108 NI AS NOT_NAMED 1979-11-17 09:00:00 TS 19.4387 69.5955 main 191 178 P________PP___ IO071979 19.4526 69.6126 XX 32 -5 19.4526 69.6126 TC 32 19.4110 69.5613 1 5 312
1979317N10072 1979 108 NI AS NOT_NAMED 1979-11-17 12:00:00 TS 19.6000 69.4000 main 185 O________OO___ jtwc_io IO071979 19.6000 69.4000 XX 30 -5 19.6000 69.4000 TC 30 19.6000 69.4000 1 5 311

IBTrACS Databaseについて

本データベースは、米国NOAAが公開する1842年以降の世界の熱帯低気圧のベストトラックデータアーカイブInternational Best Track Archive for Climate Stewardship (IBTrACS)を、ウェブで閲覧しやすい形式に変換したものです。

最終更新日:2021-10-08